Time;durP1;ratioP1;P1;durP2;ratioP2;P2;SDS_P1;SDS_P2;PMS_P1;PMS_P2;Temp;Humidity;BMP_temperature;BMP_pressure;BME280_temperature;BME280_humidity;BME280_pressure;Samples;Min_cycle;Max_cycle;Signal;HPM_P1;HPM_P2
2022/09/11 00:01:39;;;;;;;3.90;2.58;;;;;;;12.97;100.00;98396.19;4235184;27;20062;-71
2022/09/11 00:03:41;;;;;;;3.95;2.50;;;;;;;12.94;100.00;98404.13;4235313;27;20391;-71
2022/09/11 00:05:42;;;;;;;2.88;2.58;;;;;;;12.94;100.00;98395.78;4237569;27;20050;-71
2022/09/11 00:07:42;;;;;;;2.63;2.28;;;;;;;12.91;100.00;98399.38;4236666;27;20035;-71
2022/09/11 00:09:43;;;;;;;3.25;2.78;;;;;;;12.90;100.00;98402.50;4233932;27;20534;-71
2022/09/11 00:11:43;;;;;;;5.57;2.63;;;;;;;12.84;100.00;98410.47;4236470;27;20471;-71
2022/09/11 00:13:46;;;;;;;5.72;2.60;;;;;;;12.82;100.00;98400.91;4235510;27;20043;-71
2022/09/11 00:15:49;;;;;;;3.72;2.75;;;;;;;12.78;100.00;98406.47;4234073;27;20596;-71
2022/09/11 00:17:50;;;;;;;3.47;2.83;;;;;;;12.79;100.00;98402.50;4236902;27;20465;-71
2022/09/11 00:19:50;;;;;;;4.20;2.78;;;;;;;12.78;100.00;98409.25;4233263;27;20031;-72
2022/09/11 00:21:50;;;;;;;3.20;2.80;;;;;;;12.76;100.00;98414.41;4236087;27;20046;-71
2022/09/11 00:23:52;;;;;;;3.28;2.67;;;;;;;12.83;100.00;98410.88;4234259;27;20088;-72
2022/09/11 00:25:52;;;;;;;5.13;3.08;;;;;;;12.81;100.00;98408.47;4235717;27;20047;-71
2022/09/11 00:27:53;;;;;;;3.33;3.00;;;;;;;12.80;100.00;98404.09;4239056;27;20386;-71
2022/09/11 00:29:53;;;;;;;3.55;2.95;;;;;;;12.82;100.00;98398.94;4238290;27;20039;-71
2022/09/11 00:31:55;;;;;;;4.25;2.72;;;;;;;12.80;100.00;98398.53;4238292;27;20039;-72
2022/09/11 00:33:56;;;;;;;4.90;2.88;;;;;;;12.78;100.00;98405.69;4238811;27;20415;-71
2022/09/11 00:36:00;;;;;;;3.15;2.85;;;;;;;12.73;100.00;98409.63;4239835;27;20085;-71
2022/09/11 00:38:01;;;;;;;3.17;2.38;;;;;;;12.72;100.00;98405.28;4238365;27;20050;-71
2022/09/11 00:40:01;;;;;;;3.20;2.55;;;;;;;12.70;100.00;98410.44;4238319;27;20449;-71
2022/09/11 00:42:04;;;;;;;4.80;2.75;;;;;;;12.71;100.00;98411.22;4238745;27;20058;-71
2022/09/11 00:44:10;;;;;;;4.40;3.20;;;;;;;12.71;100.00;98414.00;4238639;27;20462;-71
2022/09/11 00:46:11;;;;;;;3.05;2.75;;;;;;;12.70;100.00;98409.63;4239090;27;20039;-71
2022/09/11 00:48:16;;;;;;;3.20;2.50;;;;;;;12.70;100.00;98415.19;4237830;27;20034;-71
2022/09/11 00:50:22;;;;;;;3.72;2.80;;;;;;;12.68;100.00;98404.47;4238005;27;20736;-71
2022/09/11 00:52:27;;;;;;;3.63;2.85;;;;;;;12.66;100.00;98398.53;4239130;27;20792;-71
2022/09/11 00:54:32;;;;;;;4.88;2.67;;;;;;;12.67;100.00;98404.88;4238610;27;20066;-71
2022/09/11 00:56:36;;;;;;;4.90;2.65;;;;;;;12.67;100.00;98408.44;4238377;27;20104;-71
2022/09/11 00:58:41;;;;;;;3.05;2.75;;;;;;;12.68;100.00;98410.03;4237969;27;20047;-71
2022/09/11 01:00:43;;;;;;;3.13;2.47;;;;;;;12.68;100.00;98406.47;4238479;27;20602;-71
2022/09/11 01:02:47;;;;;;;3.17;2.67;;;;;;;12.67;100.00;98405.69;4238483;27;20695;-71
2022/09/11 01:04:49;;;;;;;3.63;2.70;;;;;;;12.66;100.00;98409.66;4238199;27;20247;-71
2022/09/11 01:06:53;;;;;;;3.75;2.65;;;;;;;12.69;100.00;98410.81;4238071;27;20353;-71
2022/09/11 01:08:53;;;;;;;3.53;2.40;;;;;;;12.68;100.00;98404.47;4237877;27;20394;-71
2022/09/11 01:11:22;;;;;;;3.13;2.53;;;;;;;12.68;100.00;98410.03;4238260;27;20039;-71
2022/09/11 01:13:43;;;;;;;3.85;2.72;;;;;;;12.66;100.00;98406.88;4238248;27;20048;-71
2022/09/11 01:16:04;;;;;;;2.70;2.20;;;;;;;12.66;100.00;98401.31;4236631;27;20126;-71
2022/09/11 01:18:23;;;;;;;2.75;2.45;;;;;;;12.66;100.00;98401.31;4186047;27;20478;-71
2022/09/11 01:20:42;;;;;;;2.50;2.25;;;;;;;12.65;100.00;98396.94;4238107;27;20043;-71
2022/09/11 01:23:14;;;;;;;3.08;2.33;;;;;;;12.64;100.00;98400.91;4237902;27;20079;-71
2022/09/11 01:25:26;;;;;;;3.90;2.50;;;;;;;12.62;100.00;98398.53;4227097;27;20046;-71
2022/09/11 01:27:49;;;;;;;4.50;2.65;;;;;;;12.62;100.00;98406.84;4238522;27;20082;-71
2022/09/11 01:29:59;;;;;;;3.00;2.40;;;;;;;12.62;100.00;98412.41;4236442;27;20463;-71
2022/09/11 01:32:10;;;;;;;3.47;2.90;;;;;;;12.62;100.00;98419.94;4237880;27;20268;-71
2022/09/11 01:34:30;;;;;;;3.05;2.60;;;;;;;12.63;100.00;98421.50;4237509;27;20174;-71
2022/09/11 01:36:43;;;;;;;2.72;2.33;;;;;;;12.64;100.00;98421.13;4236911;27;20430;-71
2022/09/11 01:38:55;;;;;;;3.28;2.35;;;;;;;12.65;100.00;98413.59;4237262;27;20195;-71
2022/09/11 01:41:00;;;;;;;3.03;2.72;;;;;;;12.69;100.00;98416.38;4237565;27;20472;-71
2022/09/11 01:43:07;;;;;;;2.85;2.60;;;;;;;12.67;100.00;98419.56;4237711;27;20142;-71
2022/09/11 01:45:11;;;;;;;3.35;2.72;;;;;;;12.69;100.00;98421.94;4237136;27;20230;-71
2022/09/11 01:47:15;;;;;;;3.30;2.70;;;;;;;12.72;100.00;98424.69;4237236;27;20050;-72
2022/09/11 01:49:26;;;;;;;3.83;3.22;;;;;;;12.72;100.00;98419.16;4237062;27;20328;-71
2022/09/11 01:51:30;;;;;;;4.32;2.92;;;;;;;12.72;100.00;98427.47;4237328;27;20061;-71
2022/09/11 01:53:37;;;;;;;4.00;3.60;;;;;;;12.74;100.00;98421.53;4237727;27;20054;-71
2022/09/11 01:55:54;;;;;;;5.53;3.60;;;;;;;12.71;100.00;98419.56;4237144;27;20120;-71
2022/09/11 01:58:05;;;;;;;6.30;4.20;;;;;;;12.73;100.00;98426.28;4237225;27;20043;-71
2022/09/11 02:00:09;;;;;;;5.72;3.85;;;;;;;12.72;100.00;98426.69;4236285;27;20428;-71
2022/09/11 02:02:12;;;;;;;4.97;4.18;;;;;;;12.72;100.00;98423.91;4237092;27;20467;-71
2022/09/11 02:04:17;;;;;;;7.28;3.92;;;;;;;12.75;100.00;98429.47;4237173;27;20030;-71
2022/09/11 02:06:26;;;;;;;5.65;4.20;;;;;;;12.73;100.00;98429.06;4237113;27;20034;-71
2022/09/11 02:08:40;;;;;;;5.13;4.20;;;;;;;12.74;100.00;98427.88;4236926;27;20891;-72
2022/09/11 02:10:50;;;;;;;7.05;4.20;;;;;;;12.78;100.00;98427.91;4236244;27;20083;-71
2022/09/11 02:13:00;;;;;;;6.03;4.28;;;;;;;12.80;100.00;98423.53;4237434;27;20108;-71
2022/09/11 02:15:01;;;;;;;5.75;4.75;;;;;;;12.78;100.00;98414.81;4236970;27;20397;-71
2022/09/11 02:17:30;;;;;;;5.30;4.10;;;;;;;12.83;100.00;98425.53;4218942;28;20498;-71
2022/09/11 02:19:31;;;;;;;6.30;4.28;;;;;;;12.84;100.00;98427.13;4237254;27;20046;-71
2022/09/11 02:21:32;;;;;;;4.97;4.30;;;;;;;12.87;100.00;98426.31;4236781;27;20047;-71
2022/09/11 02:23:33;;;;;;;4.68;3.83;;;;;;;12.87;100.00;98422.75;4236794;27;20043;-71
2022/09/11 02:25:33;;;;;;;5.32;4.60;;;;;;;12.90;100.00;98424.72;4237411;27;20092;-71
2022/09/11 02:27:34;;;;;;;8.75;5.35;;;;;;;12.86;100.00;98429.50;4237253;27;20531;-71
2022/09/11 02:29:35;;;;;;;6.70;5.20;;;;;;;12.87;100.00;98431.09;4236009;27;20040;-71
2022/09/11 02:31:36;;;;;;;9.27;6.13;;;;;;;12.90;100.00;98438.63;4237129;27;20046;-71
2022/09/11 02:33:36;;;;;;;8.02;6.20;;;;;;;12.90;100.00;98433.06;4237186;27;20047;-71
2022/09/11 02:35:49;;;;;;;6.82;5.22;;;;;;;12.90;100.00;98444.16;4236938;27;20047;-71
2022/09/11 02:37:58;;;;;;;7.88;5.53;;;;;;;12.93;100.00;98441.41;4237537;27;20042;-71
2022/09/11 02:40:25;;;;;;;9.45;5.93;;;;;;;12.97;100.00;98451.72;4236437;27;20046;-71
2022/09/11 02:42:47;;;;;;;9.77;5.70;;;;;;;12.96;100.00;98450.13;4236058;27;20091;-71
2022/09/11 02:44:56;;;;;;;7.47;5.43;;;;;;;12.99;100.00;98441.00;4236604;27;20050;-71
2022/09/11 02:47:05;;;;;;;7.20;5.47;;;;;;;12.95;100.00;98441.00;4236947;27;20079;-71
2022/09/11 02:49:23;;;;;;;8.73;6.13;;;;;;;12.98;100.00;98456.09;4236478;27;20043;-71
2022/09/11 02:51:31;;;;;;;7.50;5.30;;;;;;;12.92;100.00;98450.94;4235243;27;20051;-71
2022/09/11 02:53:52;;;;;;;9.23;5.57;;;;;;;12.92;100.00;98453.72;4236469;27;20043;-71
2022/09/11 02:56:12;;;;;;;7.40;5.72;;;;;;;12.89;100.00;98456.47;4236852;27;20074;-71
2022/09/11 02:58:21;;;;;;;8.73;5.47;;;;;;;12.90;100.00;98456.06;4236124;27;20046;-71
2022/09/11 03:00:22;;;;;;;6.68;5.47;;;;;;;12.88;100.00;98452.91;4236059;27;20450;-72
2022/09/11 03:02:23;;;;;;;7.78;6.00;;;;;;;12.89;100.00;98460.03;4236795;27;20041;-71
2022/09/11 03:04:24;;;;;;;7.57;5.43;;;;;;;12.91;100.00;98459.66;4236219;27;20158;-71
2022/09/11 03:06:26;;;;;;;7.60;6.20;;;;;;;12.92;100.00;98462.03;4236591;27;20094;-71
2022/09/11 03:08:27;;;;;;;;;;;;;;;12.92;100.00;98461.25;4235724;27;20035;-71
2022/09/11 03:10:27;;;;;;;7.55;5.68;;;;;;;12.88;100.00;98461.22;4236760;27;19930;-71
2022/09/11 03:12:28;;;;;;;8.07;5.32;;;;;;;12.87;100.00;98459.63;4236084;27;20066;-71
2022/09/11 03:14:28;;;;;;;7.68;5.95;;;;;;;12.91;100.00;98465.22;4236954;27;20047;-71
2022/09/11 03:16:28;;;;;;;9.00;6.38;;;;;;;12.89;100.00;98462.81;4236324;28;20050;-71
2022/09/11 03:18:29;;;;;;;9.65;6.32;;;;;;;12.92;100.00;98461.25;4236071;28;20153;-71
2022/09/11 03:20:30;;;;;;;8.68;6.22;;;;;;;12.92;100.00;98470.38;4236716;28;20043;-71
2022/09/11 03:22:30;;;;;;;8.75;6.78;;;;;;;12.89;100.00;98471.13;4236573;28;20821;-71
2022/09/11 03:24:31;;;;;;;11.23;7.03;;;;;;;12.89;100.00;98464.78;4236404;28;20130;-71
2022/09/11 03:26:32;;;;;;;11.20;6.80;;;;;;;12.87;100.00;98465.19;4236028;28;20328;-71
2022/09/11 03:28:33;;;;;;;9.63;6.20;;;;;;;12.88;100.00;98469.56;4236001;28;20043;-71
2022/09/11 03:30:34;;;;;;;9.18;6.90;;;;;;;12.86;100.00;98471.16;4236315;28;20043;-71
2022/09/11 03:32:34;;;;;;;9.73;6.35;;;;;;;12.88;100.00;98474.31;4236339;28;20339;-71
2022/09/11 03:34:34;;;;;;;8.85;6.88;;;;;;;12.90;100.00;98474.72;4236977;28;20043;-71
2022/09/11 03:36:35;;;;;;;8.25;7.05;;;;;;;12.93;100.00;98469.19;4235987;27;20051;-71
2022/09/11 03:38:36;;;;;;;8.52;6.68;;;;;;;12.97;100.00;98471.16;4235771;28;20122;-71
2022/09/11 03:40:37;;;;;;;8.52;6.53;;;;;;;12.94;100.00;98475.53;4236161;28;20079;-71
2022/09/11 03:42:37;;;;;;;9.38;7.13;;;;;;;12.98;100.00;98479.09;4236340;28;20115;-71
2022/09/11 03:44:38;;;;;;;8.23;6.28;;;;;;;13.04;100.00;98471.19;4236410;28;20043;-71
2022/09/11 03:46:39;;;;;;;9.90;6.75;;;;;;;12.98;100.00;98472.75;4235880;28;20275;-71
2022/09/11 03:48:39;;;;;;;11.00;7.38;;;;;;;12.94;100.00;98481.88;4236103;28;20048;-71
2022/09/11 03:50:40;;;;;;;8.50;6.68;;;;;;;12.94;100.00;98478.31;4236449;28;20043;-71
2022/09/11 03:52:41;;;;;;;9.32;6.80;;;;;;;12.89;100.00;98467.56;4236037;28;20039;-71
2022/09/11 03:54:42;;;;;;;8.73;6.75;;;;;;;12.91;100.00;98474.34;4236291;28;20042;-71
2022/09/11 03:56:42;;;;;;;9.50;7.35;;;;;;;12.94;100.00;98472.75;4235599;28;20043;-71
2022/09/11 03:58:42;;;;;;;10.10;6.78;;;;;;;12.92;100.00;98469.59;4235447;28;20466;-71
2022/09/11 04:00:44;;;;;;;9.05;6.55;;;;;;;12.91;100.00;98484.66;4236136;28;20378;-71
2022/09/11 04:02:44;;;;;;;10.52;6.95;;;;;;;12.91;100.00;98482.66;4236363;28;20126;-71
2022/09/11 04:04:44;;;;;;;9.55;6.95;;;;;;;12.90;100.00;98485.81;4236160;28;20070;-71
2022/09/11 04:06:45;;;;;;;8.50;6.68;;;;;;;12.92;100.00;98484.25;4235670;28;20435;-71
2022/09/11 04:08:45;;;;;;;9.07;6.45;;;;;;;12.88;100.00;98489.00;4236142;28;20063;-71
2022/09/11 04:10:45;;;;;;;8.32;6.68;;;;;;;12.86;100.00;98496.94;4235538;28;20043;-71
2022/09/11 04:12:46;;;;;;;10.80;7.35;;;;;;;12.81;100.00;98488.97;4236008;28;20075;-71
2022/09/11 04:14:49;;;;;;;8.57;6.75;;;;;;;12.86;100.00;98491.38;4235869;28;20063;-71
2022/09/11 04:16:49;;;;;;;8.65;6.90;;;;;;;12.85;100.00;98484.22;4236370;28;20498;-71
2022/09/11 04:18:52;;;;;;;9.43;6.82;;;;;;;12.87;100.00;98498.50;4236595;27;20047;-71
2022/09/11 04:20:52;;;;;;;;;;;;;;;12.87;100.00;98504.06;4239361;27;20061;-71
2022/09/11 04:22:52;;;;;;;9.60;6.82;;;;;;;12.88;100.00;98502.09;4239476;27;19966;-71
2022/09/11 04:24:53;;;;;;;10.10;6.90;;;;;;;12.89;100.00;98503.66;4238899;27;20405;-71
2022/09/11 04:26:53;;;;;;;10.18;7.10;;;;;;;12.90;100.00;98505.25;4238863;27;20123;-71
2022/09/11 04:28:53;;;;;;;10.50;7.13;;;;;;;12.91;100.00;98499.34;4238098;27;20548;-71
2022/09/11 04:30:56;;;;;;;11.27;7.65;;;;;;;12.89;100.00;98501.69;4239286;27;20463;-71
2022/09/11 04:32:57;;;;;;;10.25;7.30;;;;;;;12.96;100.00;98516.78;4220370;28;20058;-71
2022/09/11 04:34:58;;;;;;;11.82;7.20;;;;;;;12.92;100.00;98509.25;4238695;27;20063;-71
2022/09/11 04:36:58;;;;;;;12.48;7.95;;;;;;;12.94;100.00;98509.63;4239450;27;20208;-71
2022/09/11 04:38:59;;;;;;;11.65;7.40;;;;;;;12.97;100.00;98510.84;4237980;27;20933;-71
2022/09/11 04:41:01;;;;;;;10.70;7.72;;;;;;;12.95;100.00;98504.88;4238529;27;20475;-72
2022/09/11 04:43:01;;;;;;;11.63;8.10;;;;;;;12.96;100.00;98514.00;4237006;27;20124;-71
2022/09/11 04:45:03;;;;;;;10.90;7.13;;;;;;;12.95;100.00;98513.22;4238837;27;20061;-71
2022/09/11 04:47:03;;;;;;;13.40;8.10;;;;;;;12.98;100.00;98519.97;4238299;27;20093;-71
2022/09/11 04:49:04;;;;;;;11.02;7.85;;;;;;;12.97;100.00;98515.59;4238137;27;20054;-71
2022/09/11 04:51:06;;;;;;;10.23;7.72;;;;;;;12.97;100.00;98515.59;4238908;27;20035;-71
2022/09/11 04:53:06;;;;;;;13.40;8.65;;;;;;;12.97;100.00;98519.16;4239115;27;20510;-71
2022/09/11 04:55:07;;;;;;;12.43;7.82;;;;;;;13.02;100.00;98521.56;4238468;27;20078;-71
2022/09/11 04:57:08;;;;;;;12.15;7.78;;;;;;;13.02;100.00;98523.56;4238332;27;20089;-71
2022/09/11 04:59:14;;;;;;;12.75;8.80;;;;;;;13.06;100.00;98529.91;4238099;27;20546;-71
2022/09/11 05:01:15;;;;;;;11.52;7.82;;;;;;;13.03;100.00;98523.16;4238106;27;20454;-71
2022/09/11 05:03:16;;;;;;;11.75;7.72;;;;;;;13.07;100.00;98531.47;4238501;27;20035;-71
2022/09/11 05:05:17;;;;;;;12.10;7.90;;;;;;;13.09;100.00;98526.34;4238006;27;20382;-71
2022/09/11 05:07:17;;;;;;;11.75;7.78;;;;;;;13.09;100.00;98538.25;4238627;27;20222;-71
2022/09/11 05:09:18;;;;;;;12.48;7.93;;;;;;;13.16;100.00;98532.72;4237783;27;20092;-71
2022/09/11 05:11:22;;;;;;;13.05;8.52;;;;;;;13.12;100.00;98536.66;4238295;27;20058;-71
2022/09/11 05:13:23;;;;;;;12.77;8.82;;;;;;;13.10;100.00;98533.50;4237133;27;20151;-71
2022/09/11 05:15:23;;;;;;;13.35;8.73;;;;;;;13.11;100.00;98529.53;4238468;27;20135;-71
2022/09/11 05:17:24;;;;;;;11.85;8.15;;;;;;;13.16;100.00;98540.25;4238082;27;20133;-71
2022/09/11 05:19:24;;;;;;;12.77;8.00;;;;;;;13.17;100.00;98537.09;4237594;27;20196;-71
2022/09/11 05:21:26;;;;;;;14.05;8.73;;;;;;;13.17;100.00;98539.06;4238077;27;20044;-71
2022/09/11 05:23:28;;;;;;;13.40;8.27;;;;;;;13.14;100.00;98539.84;4238523;27;20150;-71
2022/09/11 05:25:30;;;;;;;12.07;8.23;;;;;;;13.17;100.00;98544.63;4237737;27;20042;-71
2022/09/11 05:27:31;;;;;;;17.90;8.95;;;;;;;13.23;100.00;98545.03;4237993;27;20035;-71
2022/09/11 05:29:31;;;;;;;15.32;8.80;;;;;;;13.22;100.00;98552.59;4236712;27;20367;-71
2022/09/11 05:31:32;;;;;;;14.48;9.00;;;;;;;13.24;100.00;98554.97;4237477;27;20471;-71
2022/09/11 05:33:32;;;;;;;13.82;8.43;;;;;;;13.30;100.00;98556.97;4237712;27;20039;-71
2022/09/11 05:35:33;;;;;;;12.57;8.75;;;;;;;13.29;100.00;98552.59;4237882;27;20067;-71
2022/09/11 05:37:33;;;;;;;12.88;8.77;;;;;;;13.35;100.00;98564.91;4238578;27;20884;-71
2022/09/11 05:39:33;;;;;;;12.45;8.63;;;;;;;13.34;100.00;98565.31;4237159;27;20074;-71
2022/09/11 05:41:34;;;;;;;12.70;9.52;;;;;;;13.34;100.00;98566.13;4237473;27;20074;-71
2022/09/11 05:43:34;;;;;;;14.13;9.40;;;;;;;13.35;100.00;98562.16;4237768;27;20518;-71
2022/09/11 05:45:34;;;;;;;15.32;9.35;;;;;;;13.37;100.00;98570.09;4238020;27;20387;-71
2022/09/11 05:47:35;;;;;;;16.08;10.23;;;;;;;13.43;100.00;98574.06;4237575;27;20130;-71
2022/09/11 05:49:35;;;;;;;13.50;9.68;;;;;;;13.45;100.00;98577.25;4236088;27;20051;-71
2022/09/11 05:51:36;;;;;;;14.25;9.27;;;;;;;13.41;100.00;98576.47;4237060;27;20046;-71
2022/09/11 05:53:37;;;;;;;12.98;9.02;;;;;;;13.46;100.00;98584.38;4237388;27;20043;-72
2022/09/11 05:55:37;;;;;;;15.10;9.70;;;;;;;13.50;100.00;98590.75;4237614;27;20501;-72
2022/09/11 05:57:38;;;;;;;14.35;10.60;;;;;;;13.53;100.00;98595.53;4237548;27;20426;-71
2022/09/11 05:59:38;;;;;;;13.45;9.85;;;;;;;13.59;100.00;98587.59;4236843;27;20506;-72
2022/09/11 06:01:38;;;;;;;13.52;9.60;;;;;;;13.62;100.00;98595.13;4237732;27;20031;-71
2022/09/11 06:03:39;;;;;;;13.13;9.57;;;;;;;13.64;100.00;98599.09;4237328;27;20100;-71
2022/09/11 06:05:41;;;;;;;13.65;9.82;;;;;;;13.69;100.00;98603.47;4237614;27;20350;-71
2022/09/11 06:07:41;;;;;;;15.68;10.27;;;;;;;13.72;100.00;98602.69;4236778;27;20495;-71
2022/09/11 06:09:41;;;;;;;14.93;10.38;;;;;;;13.76;100.00;98606.28;4218103;28;20151;-71
2022/09/11 06:11:42;;;;;;;14.55;10.27;;;;;;;13.79;100.00;98599.91;4237439;27;20112;-71
2022/09/11 06:13:45;;;;;;;13.95;11.05;;;;;;;13.81;100.00;98605.88;4237276;27;20066;-71
2022/09/11 06:15:46;;;;;;;13.05;9.93;;;;;;;13.80;100.00;98611.81;4236209;27;20047;-71
2022/09/11 06:17:46;;;;;;;15.38;11.05;;;;;;;13.80;100.00;98609.06;4236699;27;20500;-71
2022/09/11 06:19:47;;;;;;;14.88;10.90;;;;;;;13.84;100.00;98620.97;4237129;27;20058;-71
2022/09/11 06:21:49;;;;;;;14.18;10.35;;;;;;;13.87;100.00;98615.41;4236550;27;20039;-71
2022/09/11 06:23:51;;;;;;;13.65;10.23;;;;;;;13.88;100.00;98610.63;4236682;27;20047;-71
2022/09/11 06:25:53;;;;;;;15.25;10.23;;;;;;;13.92;100.00;98615.03;4236918;27;20705;-71
2022/09/11 06:27:54;;;;;;;15.25;10.35;;;;;;;13.93;100.00;98613.03;4237124;27;20475;-71
2022/09/11 06:29:55;;;;;;;13.98;10.70;;;;;;;14.01;100.00;98620.19;4236209;27;20414;-71
2022/09/11 06:31:55;;;;;;;13.32;9.85;;;;;;;14.05;100.00;98613.41;4237224;27;20043;-71
2022/09/11 06:33:55;;;;;;;14.85;9.40;;;;;;;14.11;100.00;98629.72;4237144;27;20043;-72
2022/09/11 06:36:00;;;;;;;15.32;10.02;;;;;;;14.11;100.00;98624.94;4236241;27;20066;-72
2022/09/11 06:38:01;;;;;;;14.30;11.30;;;;;;;14.11;100.00;98627.72;4235361;27;20047;-71
2022/09/11 06:40:02;;;;;;;15.23;11.35;;;;;;;14.15;100.00;98630.50;4228174;27;20412;-71
2022/09/11 06:42:02;;;;;;;14.05;11.15;;;;;;;14.19;100.00;98625.75;4214501;28;20035;-72
2022/09/11 06:44:03;;;;;;;14.27;11.20;;;;;;;14.19;100.00;98631.31;4234036;27;20195;-71
2022/09/11 06:46:04;;;;;;;16.83;11.05;;;;;;;14.22;100.00;98639.66;4236436;27;20027;-71
2022/09/11 06:48:05;;;;;;;18.33;11.32;;;;;;;14.22;100.00;98633.28;4236488;27;20384;-71
2022/09/11 06:50:05;;;;;;;14.05;11.48;;;;;;;14.22;100.00;98628.50;4236457;27;20458;-71
2022/09/11 06:52:06;;;;;;;17.38;12.00;;;;;;;14.31;100.00;98644.81;4237118;27;20031;-71
2022/09/11 06:54:06;;;;;;;15.52;12.25;;;;;;;14.19;100.00;98634.88;4236981;27;20110;-72
2022/09/11 06:56:11;;;;;;;18.17;12.40;;;;;;;14.26;100.00;98634.09;4237180;27;20046;-72
2022/09/11 06:58:11;;;;;;;17.35;12.82;;;;;;;14.25;100.00;98638.88;4236846;27;20031;-71
2022/09/11 07:00:12;;;;;;;21.13;12.82;;;;;;;14.24;100.00;98636.50;4236244;27;20062;-72
2022/09/11 07:02:13;;;;;;;18.27;12.93;;;;;;;14.28;100.00;98642.84;4230138;27;20054;-71
2022/09/11 07:04:13;;;;;;;16.13;12.15;;;;;;;14.32;100.00;98644.44;4236135;27;21335;-71
2022/09/11 07:06:15;;;;;;;14.93;11.18;;;;;;;14.41;100.00;98646.00;4236244;27;20253;-71
2022/09/11 07:08:16;;;;;;;15.48;11.02;;;;;;;14.47;100.00;98650.78;4236396;27;20023;-71
2022/09/11 07:10:16;;;;;;;17.70;12.18;;;;;;;14.44;100.00;98650.78;4235400;27;20167;-71
2022/09/11 07:12:17;;;;;;;14.18;11.25;;;;;;;14.48;100.00;98652.41;4237142;27;20030;-71
2022/09/11 07:14:20;;;;;;;14.50;11.15;;;;;;;14.46;100.00;98649.19;4217867;28;20024;-71
2022/09/11 07:16:20;;;;;;;15.45;12.07;;;;;;;14.42;100.00;98655.94;4236551;27;20057;-72
2022/09/11 07:18:20;;;;;;;16.80;11.63;;;;;;;14.44;100.00;98653.56;4236258;28;20067;-71
2022/09/11 07:20:21;;;;;;;14.90;11.13;;;;;;;14.43;100.00;98657.53;4236062;28;20150;-71
2022/09/11 07:22:21;;;;;;;13.82;10.75;;;;;;;14.47;100.00;98659.13;4236419;28;20076;-71
2022/09/11 07:24:21;;;;;;;15.20;10.75;;;;;;;14.59;100.00;98655.94;4217803;28;20036;-71
2022/09/11 07:26:25;;;;;;;15.25;10.95;;;;;;;14.77;100.00;98655.13;4236595;28;20502;-71
2022/09/11 07:28:25;;;;;;;13.50;10.23;;;;;;;15.03;99.54;98657.41;4235482;28;20265;-72
2022/09/11 07:30:26;;;;;;;15.52;11.30;;;;;;;15.22;99.48;98667.28;4236541;28;20853;-71
2022/09/11 07:32:26;;;;;;;15.40;11.05;;;;;;;15.22;97.91;98666.50;4236675;28;20479;-71
2022/09/11 07:34:26;;;;;;;13.20;10.25;;;;;;;15.10;98.03;98665.75;4234461;28;20050;-71
2022/09/11 07:36:32;;;;;;;15.85;12.05;;;;;;;15.04;98.54;98661.78;4233360;27;20512;-71
2022/09/11 07:38:33;;;;;;;16.33;11.25;;;;;;;15.09;99.42;98674.53;4234701;28;20032;-71
2022/09/11 07:40:33;;;;;;;15.18;11.73;;;;;;;15.13;98.65;98676.09;4234950;28;20050;-71
2022/09/11 07:42:33;;;;;;;16.35;12.15;;;;;;;15.09;97.63;98678.09;4235572;28;20042;-71
2022/09/11 07:44:35;;;;;;;16.33;10.52;;;;;;;15.16;97.41;98674.50;4235374;28;20387;-71
2022/09/11 07:46:40;;;;;;;;;;;;;;;15.03;98.19;98679.72;4235714;28;20973;-71
2022/09/11 07:48:41;;;;;;;14.60;10.38;;;;;;;14.95;97.79;98677.34;4233756;28;19919;-71
2022/09/11 07:50:42;;;;;;;13.67;10.37;;;;;;;14.84;99.90;98677.38;4235079;28;20110;-71
2022/09/11 07:52:42;;;;;;;15.30;11.30;;;;;;;14.86;99.16;98691.69;4235347;27;20483;-71
2022/09/11 07:54:42;;;;;;;15.55;12.48;;;;;;;14.76;99.87;98686.94;4219181;28;20442;-72
2022/09/11 07:56:43;;;;;;;15.30;12.00;;;;;;;14.83;99.02;98684.16;4238624;27;20875;-72
2022/09/11 07:58:44;;;;;;;15.23;11.82;;;;;;;14.88;98.93;98683.72;4237807;27;20038;-71
2022/09/11 08:00:44;;;;;;;12.88;10.80;;;;;;;14.75;99.83;98688.94;4237866;27;20061;-71
2022/09/11 08:02:46;;;;;;;15.00;12.10;;;;;;;14.79;99.47;98686.13;4237583;27;20070;-71
2022/09/11 08:04:46;;;;;;;14.97;12.50;;;;;;;14.75;99.82;98696.50;4238645;27;20145;-71
2022/09/11 08:06:47;;;;;;;14.02;10.48;;;;;;;14.76;99.70;98693.31;4238173;27;20115;-71
2022/09/11 08:08:51;;;;;;;15.68;11.68;;;;;;;14.77;99.37;98697.69;4237903;27;20123;-72
2022/09/11 08:10:51;;;;;;;17.40;11.38;;;;;;;14.71;98.73;98693.72;4238331;27;20122;-71
2022/09/11 08:12:52;;;;;;;13.93;11.00;;;;;;;14.73;99.00;98699.69;4238279;27;20153;-71
2022/09/11 08:14:52;;;;;;;15.38;10.90;;;;;;;14.80;99.50;98704.44;4238006;27;20553;-71
2022/09/11 08:16:53;;;;;;;14.70;10.55;;;;;;;14.89;98.43;98708.44;4238059;27;20467;-71
2022/09/11 08:18:55;;;;;;;16.05;10.90;;;;;;;14.95;98.61;98710.78;4237476;27;20031;-71
2022/09/11 08:21:05;;;;;;;17.20;12.20;;;;;;;15.00;97.97;98718.75;4238266;27;20053;-71
2022/09/11 08:23:05;;;;;;;16.05;12.02;;;;;;;14.98;97.10;98719.16;4237799;27;20055;-71
2022/09/11 08:25:06;;;;;;;23.77;19.05;;;;;;;14.93;98.18;98718.75;4237800;27;20150;-72
2022/09/11 08:27:06;;;;;;;20.25;13.90;;;;;;;14.99;98.35;98719.94;4237959;27;20754;-71
2022/09/11 08:29:07;;;;;;;51.35;31.90;;;;;;;15.05;97.84;98719.09;4237508;27;20428;-71
2022/09/11 08:31:08;;;;;;;37.38;28.20;;;;;;;15.08;97.85;98721.09;4237687;27;20121;-71
2022/09/11 08:33:11;;;;;;;16.53;13.07;;;;;;;15.14;97.00;98730.66;4237677;27;20451;-71
2022/09/11 08:35:11;;;;;;;15.75;11.73;;;;;;;15.21;95.96;98729.81;4237359;27;20297;-71
2022/09/11 08:37:12;;;;;;;15.88;12.13;;;;;;;15.31;94.15;98731.00;4239188;27;20475;-71
2022/09/11 08:39:12;;;;;;;16.58;12.13;;;;;;;15.21;95.02;98724.25;4236904;27;20122;-72
2022/09/11 08:41:41;;;;;;;18.30;12.80;;;;;;;15.21;94.75;98738.16;4237706;27;20366;-72
2022/09/11 08:43:52;;;;;;;18.27;13.32;;;;;;;15.17;95.04;98740.19;4238694;27;20100;-71
2022/09/11 08:45:57;;;;;;;24.77;12.20;;;;;;;15.24;94.68;98742.97;4237020;27;20059;-71
2022/09/11 08:47:59;;;;;;;17.90;10.90;;;;;;;15.39;93.08;98743.69;4237339;27;20088;-71
2022/09/11 08:50:17;;;;;;;17.48;12.43;;;;;;;15.48;91.53;98746.88;4236977;27;20031;-71
2022/09/11 08:52:19;;;;;;;15.05;11.32;;;;;;;15.53;92.31;98737.28;4236349;27;20043;-71
2022/09/11 08:54:27;;;;;;;15.13;12.40;;;;;;;15.51;90.99;98734.88;4135451;28;20045;-71
2022/09/11 08:56:30;;;;;;;18.05;11.85;;;;;;;15.56;92.26;98740.06;4190074;28;20056;-71
2022/09/11 08:58:47;;;;;;;15.45;11.70;;;;;;;15.61;91.98;98738.84;4218930;28;20044;-71
2022/09/11 09:01:02;;;;;;;15.73;12.43;;;;;;;15.63;91.33;98737.25;4220415;28;20194;-71
2022/09/11 09:03:36;;;;;;;17.33;11.77;;;;;;;15.66;91.27;98738.44;4219133;28;20046;-71
2022/09/11 09:06:01;;;;;;;19.23;12.27;;;;;;;15.69;91.51;98738.41;4218312;28;20043;-71
2022/09/11 09:08:20;;;;;;;15.63;11.50;;;;;;;15.77;90.79;98738.38;4217729;28;20040;-71
2022/09/11 09:10:34;;;;;;;13.85;10.50;;;;;;;15.92;89.90;98735.13;4219749;28;20201;-71
2022/09/11 09:12:55;;;;;;;15.00;10.32;;;;;;;16.23;88.51;98746.50;4219328;28;20093;-71
2022/09/11 09:15:12;;;;;;;12.50;9.82;;;;;;;16.32;87.69;98729.28;4219756;28;20053;-71
2022/09/11 09:17:18;;;;;;;15.48;11.27;;;;;;;16.44;86.91;98739.94;4218532;28;20048;-71
2022/09/11 09:19:32;;;;;;;14.57;11.35;;;;;;;16.62;87.00;98739.78;4218729;28;20506;-71
2022/09/11 09:21:52;;;;;;;16.30;11.10;;;;;;;16.46;84.29;98740.31;4218562;28;20379;-71
2022/09/11 09:23:59;;;;;;;13.63;10.60;;;;;;;16.38;83.92;98734.00;4219627;28;20679;-71
2022/09/11 09:25:59;;;;;;;14.80;10.73;;;;;;;16.19;84.84;98734.53;4220390;28;20036;-71
2022/09/11 09:28:10;;;;;;;14.00;9.68;;;;;;;16.22;84.24;98737.31;4220494;28;20058;-71
2022/09/11 09:30:16;;;;;;;14.75;10.68;;;;;;;16.19;85.53;98738.13;4218159;28;20483;-71
2022/09/11 09:32:25;;;;;;;13.07;10.07;;;;;;;16.15;85.78;98736.56;4219431;28;20034;-71